sensor_id;sensor_type;location;lat;lon;timestamp;temperature;humidity
60727;DHT22;46577;49.004;12.120;2023-03-01T00:04:17;1.20;99.80
60727;DHT22;46577;49.004;12.120;2023-03-01T00:06:43;1.20;99.80
60727;DHT22;46577;49.004;12.120;2023-03-01T00:09:12;1.10;99.80
60727;DHT22;46577;49.004;12.120;2023-03-01T00:11:37;1.10;99.90
60727;DHT22;46577;49.004;12.120;2023-03-01T00:14:03;1.00;99.90
60727;DHT22;46577;49.004;12.120;2023-03-01T00:16:37;0.90;99.90
60727;DHT22;46577;49.004;12.120;2023-03-01T00:19:05;0.90;99.90
60727;DHT22;46577;49.004;12.120;2023-03-01T00:21:31;0.90;99.90
60727;DHT22;46577;49.004;12.120;2023-03-01T00:23:57;0.80;99.90
60727;DHT22;46577;49.004;12.120;2023-03-01T00:26:24;0.70;99.90
60727;DHT22;46577;49.004;12.120;2023-03-01T00:28:51;0.70;99.90
60727;DHT22;46577;49.004;12.120;2023-03-01T00:31:20;0.60;99.90
60727;DHT22;46577;49.004;12.120;2023-03-01T00:33:46;0.60;99.90
60727;DHT22;46577;49.004;12.120;2023-03-01T00:36:13;0.60;99.90
60727;DHT22;46577;49.004;12.120;2023-03-01T00:38:41;0.50;99.90
60727;DHT22;46577;49.004;12.120;2023-03-01T00:41:12;0.50;99.90
60727;DHT22;46577;49.004;12.120;2023-03-01T00:43:39;0.50;99.90
60727;DHT22;46577;49.004;12.120;2023-03-01T00:46:10;0.50;99.90
60727;DHT22;46577;49.004;12.120;2023-03-01T00:48:36;0.50;99.90
60727;DHT22;46577;49.004;12.120;2023-03-01T00:51:07;0.50;99.90
60727;DHT22;46577;49.004;12.120;2023-03-01T00:53:33;0.50;99.90
60727;DHT22;46577;49.004;12.120;2023-03-01T00:55:59;0.50;99.90
60727;DHT22;46577;49.004;12.120;2023-03-01T00:58:25;0.50;99.90
60727;DHT22;46577;49.004;12.120;2023-03-01T01:00:50;0.50;99.90
60727;DHT22;46577;49.004;12.120;2023-03-01T01:03:18;0.50;99.90
60727;DHT22;46577;49.004;12.120;2023-03-01T01:05:43;0.50;99.90
60727;DHT22;46577;49.004;12.120;2023-03-01T01:08:09;0.50;99.90
60727;DHT22;46577;49.004;12.120;2023-03-01T01:10:35;0.50;99.90
60727;DHT22;46577;49.004;12.120;2023-03-01T01:13:00;0.40;99.90
60727;DHT22;46577;49.004;12.120;2023-03-01T01:15:26;0.40;99.90
60727;DHT22;46577;49.004;12.120;2023-03-01T01:17:52;0.40;99.90
60727;DHT22;46577;49.004;12.120;2023-03-01T01:20:18;0.30;99.90
60727;DHT22;46577;49.004;12.120;2023-03-01T01:22:43;0.30;99.90
60727;DHT22;46577;49.004;12.120;2023-03-01T01:25:09;0.30;99.90
60727;DHT22;46577;49.004;12.120;2023-03-01T01:27:35;0.20;99.90
60727;DHT22;46577;49.004;12.120;2023-03-01T01:30:01;0.20;99.90
60727;DHT22;46577;49.004;12.120;2023-03-01T01:32:27;0.20;99.90
60727;DHT22;46577;49.004;12.120;2023-03-01T01:34:52;0.20;99.90
60727;DHT22;46577;49.004;12.120;2023-03-01T01:39:44;0.20;99.90
60727;DHT22;46577;49.004;12.120;2023-03-01T01:42:16;0.30;99.90
60727;DHT22;46577;49.004;12.120;2023-03-01T01:44:46;0.40;99.90
60727;DHT22;46577;49.004;12.120;2023-03-01T01:47:18;0.50;99.90
60727;DHT22;46577;49.004;12.120;2023-03-01T01:49:52;0.50;99.90
60727;DHT22;46577;49.004;12.120;2023-03-01T01:52:35;0.50;99.90
60727;DHT22;46577;49.004;12.120;2023-03-01T01:57:52;0.50;99.90
60727;DHT22;46577;49.004;12.120;2023-03-01T02:00:25;0.50;99.90
60727;DHT22;46577;49.004;12.120;2023-03-01T02:02:56;0.40;99.90
60727;DHT22;46577;49.004;12.120;2023-03-01T02:05:50;0.30;99.90
60727;DHT22;46577;49.004;12.120;2023-03-01T02:08:19;0.30;99.90
60727;DHT22;46577;49.004;12.120;2023-03-01T02:10:45;0.20;99.90
60727;DHT22;46577;49.004;12.120;2023-03-01T02:13:11;0.20;99.90
60727;DHT22;46577;49.004;12.120;2023-03-01T02:15:38;0.10;99.90
60727;DHT22;46577;49.004;12.120;2023-03-01T02:18:05;0.00;99.90
60727;DHT22;46577;49.004;12.120;2023-03-01T02:23:27;-0.10;99.90
60727;DHT22;46577;49.004;12.120;2023-03-01T02:26:40;-0.20;99.90
60727;DHT22;46577;49.004;12.120;2023-03-01T02:29:04;-0.20;99.90
60727;DHT22;46577;49.004;12.120;2023-03-01T02:31:31;-0.40;99.90
60727;DHT22;46577;49.004;12.120;2023-03-01T02:34:14;-0.40;99.90
60727;DHT22;46577;49.004;12.120;2023-03-01T02:37:02;-0.50;99.90
60727;DHT22;46577;49.004;12.120;2023-03-01T02:39:40;-0.50;99.90
60727;DHT22;46577;49.004;12.120;2023-03-01T02:42:14;-0.50;99.90
60727;DHT22;46577;49.004;12.120;2023-03-01T02:44:40;-0.40;99.90
60727;DHT22;46577;49.004;12.120;2023-03-01T02:47:06;-0.50;99.90
60727;DHT22;46577;49.004;12.120;2023-03-01T02:49:34;-0.50;99.90
60727;DHT22;46577;49.004;12.120;2023-03-01T02:52:16;-0.50;99.90
60727;DHT22;46577;49.004;12.120;2023-03-01T02:55:16;-0.50;99.90
60727;DHT22;46577;49.004;12.120;2023-03-01T02:57:45;-0.50;99.90
60727;DHT22;46577;49.004;12.120;2023-03-01T03:00:18;-0.60;99.90
60727;DHT22;46577;49.004;12.120;2023-03-01T03:02:51;-0.60;99.90
60727;DHT22;46577;49.004;12.120;2023-03-01T03:05:29;-0.60;99.90
60727;DHT22;46577;49.004;12.120;2023-03-01T03:07:55;-0.60;99.90
60727;DHT22;46577;49.004;12.120;2023-03-01T03:10:26;-0.60;99.90
60727;DHT22;46577;49.004;12.120;2023-03-01T03:12:55;-0.70;99.90
60727;DHT22;46577;49.004;12.120;2023-03-01T03:15:21;-0.70;99.90
60727;DHT22;46577;49.004;12.120;2023-03-01T03:17:48;-0.70;99.90
60727;DHT22;46577;49.004;12.120;2023-03-01T03:20:17;-0.70;99.90
60727;DHT22;46577;49.004;12.120;2023-03-01T03:22:48;-0.80;99.90
60727;DHT22;46577;49.004;12.120;2023-03-01T03:25:14;1.70;99.90
60727;DHT22;46577;49.004;12.120;2023-03-01T03:27:41;-0.80;99.90
60727;DHT22;46577;49.004;12.120;2023-03-01T03:30:10;-0.80;99.90
60727;DHT22;46577;49.004;12.120;2023-03-01T03:32:38;-0.80;99.90
60727;DHT22;46577;49.004;12.120;2023-03-01T03:35:05;-0.90;99.90
60727;DHT22;46577;49.004;12.120;2023-03-01T03:37:43;-0.90;99.90
60727;DHT22;46577;49.004;12.120;2023-03-01T03:40:30;-0.90;99.90
60727;DHT22;46577;49.004;12.120;2023-03-01T03:42:56;-1.00;99.90
60727;DHT22;46577;49.004;12.120;2023-03-01T03:45:22;-1.00;99.90
60727;DHT22;46577;49.004;12.120;2023-03-01T03:50:15;-1.10;99.90
60727;DHT22;46577;49.004;12.120;2023-03-01T03:52:41;-1.10;99.90
60727;DHT22;46577;49.004;12.120;2023-03-01T03:55:07;-1.10;99.90
60727;DHT22;46577;49.004;12.120;2023-03-01T03:57:42;-1.10;99.90
60727;DHT22;46577;49.004;12.120;2023-03-01T04:00:11;-1.10;99.90
60727;DHT22;46577;49.004;12.120;2023-03-01T04:02:39;-1.20;99.90
60727;DHT22;46577;49.004;12.120;2023-03-01T04:05:06;-1.10;99.90
60727;DHT22;46577;49.004;12.120;2023-03-01T04:07:31;-1.20;99.90
60727;DHT22;46577;49.004;12.120;2023-03-01T04:12:23;-1.30;99.90
60727;DHT22;46577;49.004;12.120;2023-03-01T04:14:49;-1.20;99.90
60727;DHT22;46577;49.004;12.120;2023-03-01T04:17:14;-1.20;99.90
60727;DHT22;46577;49.004;12.120;2023-03-01T04:22:09;-1.30;99.90
60727;DHT22;46577;49.004;12.120;2023-03-01T04:24:36;-1.20;99.90
60727;DHT22;46577;49.004;12.120;2023-03-01T04:27:02;-1.20;99.90
60727;DHT22;46577;49.004;12.120;2023-03-01T04:29:28;-1.20;99.90
60727;DHT22;46577;49.004;12.120;2023-03-01T04:31:54;-1.20;99.90
60727;DHT22;46577;49.004;12.120;2023-03-01T04:36:45;-1.30;99.90
60727;DHT22;46577;49.004;12.120;2023-03-01T04:39:11;-1.20;99.90
60727;DHT22;46577;49.004;12.120;2023-03-01T04:41:40;-1.20;99.90
60727;DHT22;46577;49.004;12.120;2023-03-01T04:44:07;-1.20;99.90
60727;DHT22;46577;49.004;12.120;2023-03-01T04:46:34;-1.20;99.90
60727;DHT22;46577;49.004;12.120;2023-03-01T04:49:00;-1.20;99.90
60727;DHT22;46577;49.004;12.120;2023-03-01T04:51:26;-1.20;99.90
60727;DHT22;46577;49.004;12.120;2023-03-01T04:53:51;-1.20;99.90
60727;DHT22;46577;49.004;12.120;2023-03-01T04:56:17;-1.20;99.90
60727;DHT22;46577;49.004;12.120;2023-03-01T04:58:43;-1.20;99.90
60727;DHT22;46577;49.004;12.120;2023-03-01T05:01:12;-1.20;99.90
60727;DHT22;46577;49.004;12.120;2023-03-01T05:03:44;-1.20;99.90
60727;DHT22;46577;49.004;12.120;2023-03-01T05:06:10;-1.30;99.90
60727;DHT22;46577;49.004;12.120;2023-03-01T05:08:40;-1.30;99.90
60727;DHT22;46577;49.004;12.120;2023-03-01T05:11:06;-1.20;99.90
60727;DHT22;46577;49.004;12.120;2023-03-01T05:13:35;-1.20;99.90
60727;DHT22;46577;49.004;12.120;2023-03-01T05:16:01;-1.30;99.90
60727;DHT22;46577;49.004;12.120;2023-03-01T05:18:30;-1.30;99.90
60727;DHT22;46577;49.004;12.120;2023-03-01T05:21:01;-1.30;99.90
60727;DHT22;46577;49.004;12.120;2023-03-01T05:23:29;-1.50;99.90
60727;DHT22;46577;49.004;12.120;2023-03-01T05:25:58;-1.40;99.90
60727;DHT22;46577;49.004;12.120;2023-03-01T05:28:25;-1.40;99.90
60727;DHT22;46577;49.004;12.120;2023-03-01T05:30:51;-1.40;99.90
60727;DHT22;46577;49.004;12.120;2023-03-01T05:33:17;-1.40;99.90
60727;DHT22;46577;49.004;12.120;2023-03-01T05:35:44;-1.40;99.90
60727;DHT22;46577;49.004;12.120;2023-03-01T05:38:11;-1.40;99.90
60727;DHT22;46577;49.004;12.120;2023-03-01T05:40:45;-1.40;99.90
60727;DHT22;46577;49.004;12.120;2023-03-01T05:43:12;-1.40;99.90
60727;DHT22;46577;49.004;12.120;2023-03-01T05:45:39;-1.40;99.90
60727;DHT22;46577;49.004;12.120;2023-03-01T05:48:06;-1.40;99.90
60727;DHT22;46577;49.004;12.120;2023-03-01T05:50:35;-1.40;99.90
60727;DHT22;46577;49.004;12.120;2023-03-01T05:53:03;-1.40;99.90
60727;DHT22;46577;49.004;12.120;2023-03-01T05:55:31;-1.40;99.90
60727;DHT22;46577;49.004;12.120;2023-03-01T05:58:01;-1.40;99.90
60727;DHT22;46577;49.004;12.120;2023-03-01T06:00:27;-1.30;99.90
60727;DHT22;46577;49.004;12.120;2023-03-01T06:02:54;-1.30;99.90
60727;DHT22;46577;49.004;12.120;2023-03-01T06:05:20;-1.30;99.90
60727;DHT22;46577;49.004;12.120;2023-03-01T06:07:46;-1.20;99.90
60727;DHT22;46577;49.004;12.120;2023-03-01T06:10:12;-1.20;99.90
60727;DHT22;46577;49.004;12.120;2023-03-01T06:12:40;-1.10;99.90
60727;DHT22;46577;49.004;12.120;2023-03-01T06:15:07;-1.00;99.90
60727;DHT22;46577;49.004;12.120;2023-03-01T06:17:35;-0.90;99.90
60727;DHT22;46577;49.004;12.120;2023-03-01T06:20:04;-0.80;99.90
60727;DHT22;46577;49.004;12.120;2023-03-01T06:22:31;-0.70;99.90
60727;DHT22;46577;49.004;12.120;2023-03-01T06:24:56;-0.50;99.90
60727;DHT22;46577;49.004;12.120;2023-03-01T06:27:22;-0.30;99.90
60727;DHT22;46577;49.004;12.120;2023-03-01T06:29:48;-0.10;99.90
60727;DHT22;46577;49.004;12.120;2023-03-01T06:32:14;0.00;99.90
60727;DHT22;46577;49.004;12.120;2023-03-01T06:34:40;0.20;99.90
60727;DHT22;46577;49.004;12.120;2023-03-01T06:37:06;0.70;99.90
60727;DHT22;46577;49.004;12.120;2023-03-01T06:39:32;1.30;99.90
60727;DHT22;46577;49.004;12.120;2023-03-01T06:41:58;2.10;99.80
60727;DHT22;46577;49.004;12.120;2023-03-01T06:44:24;2.30;98.50
60727;DHT22;46577;49.004;12.120;2023-03-01T06:46:49;3.50;98.60
60727;DHT22;46577;49.004;12.120;2023-03-01T06:49:15;1.60;98.50
60727;DHT22;46577;49.004;12.120;2023-03-01T06:51:43;1.40;98.90
60727;DHT22;46577;49.004;12.120;2023-03-01T06:54:09;1.30;99.10
60727;DHT22;46577;49.004;12.120;2023-03-01T06:56:35;1.20;99.20
60727;DHT22;46577;49.004;12.120;2023-03-01T06:59:01;1.20;99.30
60727;DHT22;46577;49.004;12.120;2023-03-01T07:01:28;1.20;99.30
60727;DHT22;46577;49.004;12.120;2023-03-01T07:03:53;1.20;99.20
60727;DHT22;46577;49.004;12.120;2023-03-01T07:06:19;1.20;99.20
60727;DHT22;46577;49.004;12.120;2023-03-01T07:08:45;1.30;99.30
60727;DHT22;46577;49.004;12.120;2023-03-01T07:11:11;1.30;99.20
60727;DHT22;46577;49.004;12.120;2023-03-01T07:13:36;1.30;99.20
60727;DHT22;46577;49.004;12.120;2023-03-01T07:16:02;1.30;99.50
60727;DHT22;46577;49.004;12.120;2023-03-01T07:18:28;1.50;98.80
60727;DHT22;46577;49.004;12.120;2023-03-01T07:20:53;1.50;99.00
60727;DHT22;46577;49.004;12.120;2023-03-01T07:23:19;1.60;99.00
60727;DHT22;46577;49.004;12.120;2023-03-01T07:25:49;1.80;99.00
60727;DHT22;46577;49.004;12.120;2023-03-01T07:28:16;1.90;98.40
60727;DHT22;46577;49.004;12.120;2023-03-01T07:30:41;2.00;97.80
60727;DHT22;46577;49.004;12.120;2023-03-01T07:33:07;2.10;97.90
60727;DHT22;46577;49.004;12.120;2023-03-01T07:37:59;2.30;97.90
60727;DHT22;46577;49.004;12.120;2023-03-01T07:40:24;2.40;97.50
60727;DHT22;46577;49.004;12.120;2023-03-01T07:42:58;2.60;97.10
60727;DHT22;46577;49.004;12.120;2023-03-01T07:45:25;2.60;96.50
60727;DHT22;46577;49.004;12.120;2023-03-01T07:47:54;2.50;97.00
60727;DHT22;46577;49.004;12.120;2023-03-01T07:50:20;2.60;95.90
60727;DHT22;46577;49.004;12.120;2023-03-01T07:52:46;2.80;96.40
60727;DHT22;46577;49.004;12.120;2023-03-01T07:55:12;2.90;95.50
60727;DHT22;46577;49.004;12.120;2023-03-01T07:57:38;3.00;95.30
60727;DHT22;46577;49.004;12.120;2023-03-01T08:00:04;3.30;94.90
60727;DHT22;46577;49.004;12.120;2023-03-01T08:02:31;3.40;94.10
60727;DHT22;46577;49.004;12.120;2023-03-01T08:04:56;3.50;94.10
60727;DHT22;46577;49.004;12.120;2023-03-01T08:12:14;3.70;92.20
60727;DHT22;46577;49.004;12.120;2023-03-01T08:14:41;3.80;92.30
60727;DHT22;46577;49.004;12.120;2023-03-01T08:22:03;5.30;90.70
60727;DHT22;46577;49.004;12.120;2023-03-01T08:24:28;5.30;90.80
60727;DHT22;46577;49.004;12.120;2023-03-01T08:26:54;8.00;80.00
60727;DHT22;46577;49.004;12.120;2023-03-01T08:29:21;11.30;59.10
60727;DHT22;46577;49.004;12.120;2023-03-01T08:31:47;13.90;46.00
60727;DHT22;46577;49.004;12.120;2023-03-01T08:34:15;16.00;38.00
60727;DHT22;46577;49.004;12.120;2023-03-01T08:36:42;17.70;34.00
60727;DHT22;46577;49.004;12.120;2023-03-01T08:39:11;18.00;29.50
60727;DHT22;46577;49.004;12.120;2023-03-01T08:41:37;19.80;28.50
60727;DHT22;46577;49.004;12.120;2023-03-01T08:44:03;20.10;26.80
60727;DHT22;46577;49.004;12.120;2023-03-01T08:46:32;20.80;26.60
60727;DHT22;46577;49.004;12.120;2023-03-01T08:48:57;21.90;25.90
60727;DHT22;46577;49.004;12.120;2023-03-01T08:51:24;23.00;23.20
60727;DHT22;46577;49.004;12.120;2023-03-01T08:53:50;23.10;23.70
60727;DHT22;46577;49.004;12.120;2023-03-01T08:56:16;23.40;23.10
60727;DHT22;46577;49.004;12.120;2023-03-01T08:58:47;23.30;24.00
60727;DHT22;46577;49.004;12.120;2023-03-01T09:01:18;24.70;22.50
60727;DHT22;46577;49.004;12.120;2023-03-01T09:03:45;24.60;21.30
60727;DHT22;46577;49.004;12.120;2023-03-01T09:06:12;25.90;20.90
60727;DHT22;46577;49.004;12.120;2023-03-01T09:08:39;26.80;20.10
60727;DHT22;46577;49.004;12.120;2023-03-01T09:11:07;26.50;19.30
60727;DHT22;46577;49.004;12.120;2023-03-01T09:16:01;25.60;19.40
60727;DHT22;46577;49.004;12.120;2023-03-01T09:23:20;26.40;19.40
60727;DHT22;46577;49.004;12.120;2023-03-01T09:25:46;26.20;19.40
60727;DHT22;46577;49.004;12.120;2023-03-01T09:30:38;25.90;19.00
60727;DHT22;46577;49.004;12.120;2023-03-01T09:37:56;26.20;19.80
60727;DHT22;46577;49.004;12.120;2023-03-01T09:40:24;26.70;19.20
60727;DHT22;46577;49.004;12.120;2023-03-01T09:42:55;27.30;18.90
60727;DHT22;46577;49.004;12.120;2023-03-01T09:45:29;27.70;18.30
60727;DHT22;46577;49.004;12.120;2023-03-01T09:47:58;27.60;18.60
60727;DHT22;46577;49.004;12.120;2023-03-01T09:50:26;28.40;18.10
60727;DHT22;46577;49.004;12.120;2023-03-01T09:53:28;27.50;18.40
60727;DHT22;46577;49.004;12.120;2023-03-01T09:56:04;26.90;18.70
60727;DHT22;46577;49.004;12.120;2023-03-01T09:58:59;26.70;18.70
60727;DHT22;46577;49.004;12.120;2023-03-01T10:01:40;26.40;18.90
60727;DHT22;46577;49.004;12.120;2023-03-01T10:04:31;26.70;19.00
60727;DHT22;46577;49.004;12.120;2023-03-01T10:09:35;27.70;18.70
60727;DHT22;46577;49.004;12.120;2023-03-01T10:12:04;28.00;17.90
60727;DHT22;46577;49.004;12.120;2023-03-01T10:14:36;28.00;18.10
60727;DHT22;46577;49.004;12.120;2023-03-01T10:17:46;27.60;18.30
60727;DHT22;46577;49.004;12.120;2023-03-01T10:19:52;26.80;18.70
60727;DHT22;46577;49.004;12.120;2023-03-01T10:22:24;26.30;19.00
60727;DHT22;46577;49.004;12.120;2023-03-01T10:24:51;27.00;19.10
60727;DHT22;46577;49.004;12.120;2023-03-01T10:27:26;27.70;18.60
60727;DHT22;46577;49.004;12.120;2023-03-01T10:32:20;27.50;18.50
60727;DHT22;46577;49.004;12.120;2023-03-01T10:37:15;28.00;17.90
60727;DHT22;46577;49.004;12.120;2023-03-01T10:40:06;27.80;18.40
60727;DHT22;46577;49.004;12.120;2023-03-01T10:42:40;28.80;17.60
60727;DHT22;46577;49.004;12.120;2023-03-01T10:45:30;28.20;18.00
60727;DHT22;46577;49.004;12.120;2023-03-01T10:53:02;27.30;18.60
60727;DHT22;46577;49.004;12.120;2023-03-01T10:55:35;27.60;18.10
60727;DHT22;46577;49.004;12.120;2023-03-01T10:58:21;27.70;18.10
60727;DHT22;46577;49.004;12.120;2023-03-01T11:00:58;28.40;18.10
60727;DHT22;46577;49.004;12.120;2023-03-01T11:03:35;29.40;18.10
60727;DHT22;46577;49.004;12.120;2023-03-01T11:06:20;29.20;17.40
60727;DHT22;46577;49.004;12.120;2023-03-01T11:08:48;29.80;17.30
60727;DHT22;46577;49.004;12.120;2023-03-01T11:16:43;28.20;17.30
60727;DHT22;46577;49.004;12.120;2023-03-01T11:21:52;26.70;18.40
60727;DHT22;46577;49.004;12.120;2023-03-01T11:24:19;26.30;19.20
60727;DHT22;46577;49.004;12.120;2023-03-01T11:26:52;26.60;18.30
60727;DHT22;46577;49.004;12.120;2023-03-01T11:29:37;26.20;18.80
60727;DHT22;46577;49.004;12.120;2023-03-01T11:32:07;26.20;18.90
60727;DHT22;46577;49.004;12.120;2023-03-01T11:34:55;25.40;19.30
60727;DHT22;46577;49.004;12.120;2023-03-01T11:38:09;25.00;19.40
60727;DHT22;46577;49.004;12.120;2023-03-01T11:40:26;26.30;19.30
60727;DHT22;46577;49.004;12.120;2023-03-01T11:48:46;27.30;18.80
60727;DHT22;46577;49.004;12.120;2023-03-01T11:51:29;27.10;18.50
60727;DHT22;46577;49.004;12.120;2023-03-01T11:54:04;27.00;19.00
60727;DHT22;46577;49.004;12.120;2023-03-01T11:56:35;27.00;18.50
60727;DHT22;46577;49.004;12.120;2023-03-01T11:59:16;25.60;18.70
60727;DHT22;46577;49.004;12.120;2023-03-01T12:07:21;26.30;20.60
60727;DHT22;46577;49.004;12.120;2023-03-01T12:46:44;24.40;21.20
60727;DHT22;46577;49.004;12.120;2023-03-01T12:51:59;22.90;22.90
60727;DHT22;46577;49.004;12.120;2023-03-01T12:54:29;22.90;23.00
60727;DHT22;46577;49.004;12.120;2023-03-01T12:56:57;22.80;22.90
60727;DHT22;46577;49.004;12.120;2023-03-01T12:59:37;21.80;23.00
60727;DHT22;46577;49.004;12.120;2023-03-01T13:02:27;21.50;23.90
60727;DHT22;46577;49.004;12.120;2023-03-01T13:12:47;21.10;24.80
60727;DHT22;46577;49.004;12.120;2023-03-01T13:17:43;18.30;26.60
60727;DHT22;46577;49.004;12.120;2023-03-01T13:20:13;17.30;28.20
60727;DHT22;46577;49.004;12.120;2023-03-01T13:22:39;15.90;28.70
60727;DHT22;46577;49.004;12.120;2023-03-01T13:25:25;14.70;31.00
60727;DHT22;46577;49.004;12.120;2023-03-01T13:27:51;13.70;32.30
60727;DHT22;46577;49.004;12.120;2023-03-01T13:33:33;12.40;35.60
60727;DHT22;46577;49.004;12.120;2023-03-01T13:36:00;12.20;37.60
60727;DHT22;46577;49.004;12.120;2023-03-01T13:39:03;12.20;37.50
60727;DHT22;46577;49.004;12.120;2023-03-01T13:41:50;11.90;38.20
60727;DHT22;46577;49.004;12.120;2023-03-01T13:46:59;12.20;38.50
60727;DHT22;46577;49.004;12.120;2023-03-01T13:49:41;11.90;38.60
60727;DHT22;46577;49.004;12.120;2023-03-01T13:54:56;11.50;39.90
60727;DHT22;46577;49.004;12.120;2023-03-01T13:57:34;11.40;40.00
60727;DHT22;46577;49.004;12.120;2023-03-01T14:00:00;11.20;40.50
60727;DHT22;46577;49.004;12.120;2023-03-01T14:02:25;11.00;40.60
60727;DHT22;46577;49.004;12.120;2023-03-01T14:04:59;11.00;41.40
60727;DHT22;46577;49.004;12.120;2023-03-01T14:07:26;11.10;41.40
60727;DHT22;46577;49.004;12.120;2023-03-01T14:10:01;11.00;41.80
60727;DHT22;46577;49.004;12.120;2023-03-01T14:13:25;10.70;42.10
60727;DHT22;46577;49.004;12.120;2023-03-01T14:15:43;10.50;43.50
60727;DHT22;46577;49.004;12.120;2023-03-01T14:18:27;10.40;43.30
60727;DHT22;46577;49.004;12.120;2023-03-01T14:20:55;10.20;44.00
60727;DHT22;46577;49.004;12.120;2023-03-01T14:23:23;10.30;44.20
60727;DHT22;46577;49.004;12.120;2023-03-01T14:25:51;10.40;44.60
60727;DHT22;46577;49.004;12.120;2023-03-01T14:28:26;10.10;44.40
60727;DHT22;46577;49.004;12.120;2023-03-01T14:30:55;10.10;45.10
60727;DHT22;46577;49.004;12.120;2023-03-01T14:33:29;10.00;45.40
60727;DHT22;46577;49.004;12.120;2023-03-01T14:38:23;9.80;47.30
60727;DHT22;46577;49.004;12.120;2023-03-01T14:40:51;9.70;47.60
60727;DHT22;46577;49.004;12.120;2023-03-01T14:43:22;9.50;47.90
60727;DHT22;46577;49.004;12.120;2023-03-01T14:45:50;9.30;48.60
60727;DHT22;46577;49.004;12.120;2023-03-01T14:48:16;9.30;48.90
60727;DHT22;46577;49.004;12.120;2023-03-01T14:50:43;9.20;49.40
60727;DHT22;46577;49.004;12.120;2023-03-01T14:53:29;9.30;49.60
60727;DHT22;46577;49.004;12.120;2023-03-01T14:55:59;9.30;49.70
60727;DHT22;46577;49.004;12.120;2023-03-01T15:00:56;9.10;50.50
60727;DHT22;46577;49.004;12.120;2023-03-01T15:03:43;9.10;50.80
60727;DHT22;46577;49.004;12.120;2023-03-01T15:06:11;9.00;51.10
60727;DHT22;46577;49.004;12.120;2023-03-01T15:08:44;9.20;51.30
60727;DHT22;46577;49.004;12.120;2023-03-01T15:11:29;9.20;51.50
60727;DHT22;46577;49.004;12.120;2023-03-01T15:16:22;8.90;51.80
60727;DHT22;46577;49.004;12.120;2023-03-01T15:18:52;8.90;52.20
60727;DHT22;46577;49.004;12.120;2023-03-01T15:21:24;8.90;52.80
60727;DHT22;46577;49.004;12.120;2023-03-01T15:24:04;8.90;53.10
60727;DHT22;46577;49.004;12.120;2023-03-01T15:26:35;9.00;53.30
60727;DHT22;46577;49.004;12.120;2023-03-01T15:29:01;8.80;53.30
60727;DHT22;46577;49.004;12.120;2023-03-01T15:31:31;8.70;53.80
60727;DHT22;46577;49.004;12.120;2023-03-01T15:34:23;8.60;53.90
60727;DHT22;46577;49.004;12.120;2023-03-01T15:36:51;8.50;54.30
60727;DHT22;46577;49.004;12.120;2023-03-01T15:39:39;8.40;55.00
60727;DHT22;46577;49.004;12.120;2023-03-01T15:42:17;8.40;55.80
60727;DHT22;46577;49.004;12.120;2023-03-01T15:47:47;8.30;56.70
60727;DHT22;46577;49.004;12.120;2023-03-01T15:50:34;8.30;56.80
60727;DHT22;46577;49.004;12.120;2023-03-01T15:53:05;8.30;57.10
60727;DHT22;46577;49.004;12.120;2023-03-01T15:55:34;8.20;57.80
60727;DHT22;46577;49.004;12.120;2023-03-01T15:58:05;8.20;58.80
60727;DHT22;46577;49.004;12.120;2023-03-01T16:00:32;8.10;58.80
60727;DHT22;46577;49.004;12.120;2023-03-01T16:02:58;8.10;59.20
60727;DHT22;46577;49.004;12.120;2023-03-01T16:05:30;8.00;59.70
60727;DHT22;46577;49.004;12.120;2023-03-01T16:07:56;7.90;60.60
60727;DHT22;46577;49.004;12.120;2023-03-01T16:10:22;7.90;62.60
60727;DHT22;46577;49.004;12.120;2023-03-01T16:12:50;7.70;62.40
60727;DHT22;46577;49.004;12.120;2023-03-01T16:15:29;7.60;62.80
60727;DHT22;46577;49.004;12.120;2023-03-01T16:17:55;7.50;64.20
60727;DHT22;46577;49.004;12.120;2023-03-01T16:20:25;7.50;64.80
60727;DHT22;46577;49.004;12.120;2023-03-01T16:22:51;7.40;65.00
60727;DHT22;46577;49.004;12.120;2023-03-01T16:25:19;7.30;65.10
60727;DHT22;46577;49.004;12.120;2023-03-01T16:27:46;7.20;65.90
60727;DHT22;46577;49.004;12.120;2023-03-01T16:30:13;7.20;66.30
60727;DHT22;46577;49.004;12.120;2023-03-01T16:32:40;7.10;66.60
60727;DHT22;46577;49.004;12.120;2023-03-01T16:35:07;7.00;67.20
60727;DHT22;46577;49.004;12.120;2023-03-01T16:37:33;7.00;68.10
60727;DHT22;46577;49.004;12.120;2023-03-01T16:39:59;6.80;68.70
60727;DHT22;46577;49.004;12.120;2023-03-01T16:42:25;6.80;69.70
60727;DHT22;46577;49.004;12.120;2023-03-01T16:44:56;6.70;70.20
60727;DHT22;46577;49.004;12.120;2023-03-01T16:47:22;6.70;70.90
60727;DHT22;46577;49.004;12.120;2023-03-01T16:49:52;6.70;71.70
60727;DHT22;46577;49.004;12.120;2023-03-01T16:52:18;6.50;71.90
60727;DHT22;46577;49.004;12.120;2023-03-01T16:54:43;6.40;73.10
60727;DHT22;46577;49.004;12.120;2023-03-01T16:57:09;6.40;73.40
60727;DHT22;46577;49.004;12.120;2023-03-01T16:59:34;6.40;74.40
60727;DHT22;46577;49.004;12.120;2023-03-01T17:02:00;6.20;74.80
60727;DHT22;46577;49.004;12.120;2023-03-01T17:04:26;6.20;75.40
60727;DHT22;46577;49.004;12.120;2023-03-01T17:09:17;6.00;77.30
60727;DHT22;46577;49.004;12.120;2023-03-01T17:11:43;6.00;77.90
60727;DHT22;46577;49.004;12.120;2023-03-01T17:19:01;6.00;79.50
60727;DHT22;46577;49.004;12.120;2023-03-01T17:21:27;5.90;80.20
60727;DHT22;46577;49.004;12.120;2023-03-01T17:23:56;5.90;80.50
60727;DHT22;46577;49.004;12.120;2023-03-01T17:26:22;5.80;81.30
60727;DHT22;46577;49.004;12.120;2023-03-01T17:31:17;5.70;82.70
60727;DHT22;46577;49.004;12.120;2023-03-01T17:38:35;5.80;84.70
60727;DHT22;46577;49.004;12.120;2023-03-01T17:41:02;5.70;84.90
60727;DHT22;46577;49.004;12.120;2023-03-01T17:43:28;5.70;85.50
60727;DHT22;46577;49.004;12.120;2023-03-01T17:45:55;5.70;86.10
60727;DHT22;46577;49.004;12.120;2023-03-01T17:48:20;5.60;86.60
60727;DHT22;46577;49.004;12.120;2023-03-01T17:50:46;5.60;87.00
60727;DHT22;46577;49.004;12.120;2023-03-01T17:53:12;5.60;87.60
60727;DHT22;46577;49.004;12.120;2023-03-01T17:55:39;5.60;88.20
60727;DHT22;46577;49.004;12.120;2023-03-01T17:58:06;5.60;88.60
60727;DHT22;46577;49.004;12.120;2023-03-01T18:00:33;5.60;89.80
60727;DHT22;46577;49.004;12.120;2023-03-01T18:02:59;5.60;90.20
60727;DHT22;46577;49.004;12.120;2023-03-01T18:05:25;6.50;93.50
60727;DHT22;46577;49.004;12.120;2023-03-01T18:07:51;5.60;92.10
60727;DHT22;46577;49.004;12.120;2023-03-01T18:10:18;5.60;91.60
60727;DHT22;46577;49.004;12.120;2023-03-01T18:12:44;5.60;91.60
60727;DHT22;46577;49.004;12.120;2023-03-01T18:15:10;5.60;91.70
60727;DHT22;46577;49.004;12.120;2023-03-01T18:20:04;5.60;91.80
60727;DHT22;46577;49.004;12.120;2023-03-01T18:22:30;5.60;91.70
60727;DHT22;46577;49.004;12.120;2023-03-01T18:29:48;5.50;92.50